EBCI/CRL METAR and TAF weather

Enter ICAO airport designator
Station Type Date Time Source
EBCI METAR 2018/12/12 16:20 UTC NOAA

EBCI 121620Z 09006KT 060V130 6000 FEW008 01/00 Q1023 TEMPO 0400 FG BKN001


Station Type Date Time Source
EBCI Decoded METAR 2018/12/12 16:20 UTC NOAA

Charleroi / Gosselies, Belgium (EBCI) 50-28N 004-27E 192M
Dec 12, 2018 - 11:20 AM EST / 2018.12.12 1620 UTC
Wind: from the E (090 degrees) at 7 MPH (6 KT) (direction variable):0
Visibility: 3 mile(s):0
Sky conditions: mostly clear
Temperature: 33 F (1 C)
Windchill: 26 F (-3 C):1
Dew Point: 32 F (0 C)
Relative Humidity: 93%
Pressure (altimeter): 30.21 in. Hg (1023 hPa)
ob: EBCI 121620Z 09006KT 060V130 6000 FEW008 01/00 Q1023 TEMPO 0400 FG BKN001
cycle: 16

Station Type Date Time Source
EBCI TAF 2018/12/12 12:27 UTC NOAA

TAF EBCI 121110Z 1212/1318 10005KT 6000 SCT004
BECMG 1222/1224 4000 BR PROB30
TEMPO 1302/1309 0300 FZFG VV002
BECMG 1309/1311 7000 NSW


Example: see airport list